Terminal Aerodrome Forecast
Issued by NWS Charleston, WV

Current Version | Previous Version | Graphics & Text | Print | Product List | Glossary On
Versions: 1 2 3 4 5 6 7 8 9 10 11 12 13 14 15 16 17 18 19 20 21
036
FTUS41 KRLX 031513 AAB
TAFCRW
TAF AMD
KCRW 031513Z 0315/0412 15008KT P6SM -SHRA SCT025 BKN100
     FM031700 21009G15KT P6SM SCT050 BKN100
     FM032300 23008KT P6SM FEW050
     FM040800 27006KT P6SM BKN025=

USA.gov is the U.S. government's official web portal to all federal, state and local government web resources and services.